Time;durP1;ratioP1;P1;durP2;ratioP2;P2;SDS_P1;SDS_P2;PMS_P1;PMS_P2;Temp;Humidity;BMP_temperature;BMP_pressure;BME280_temperature;BME280_humidity;BME280_pressure;Samples;Min_cycle;Max_cycle;Signal;HPM_P1;HPM_P2
2023/11/19 00:00:19;;;;;;;24.85;17.92;;;4.90;99.90;;;;;;2083598;28;20079;-79
2023/11/19 00:01:19;;;;;;;24.70;17.27;;;4.90;99.90;;;;;;2084179;28;20481;-80
2023/11/19 00:02:20;;;;;;;24.27;16.98;;;5.00;99.90;;;;;;2092015;28;20083;-80
2023/11/19 00:03:21;;;;;;;23.30;17.15;;;5.00;99.90;;;;;;2088404;28;20472;-80
2023/11/19 00:04:21;;;;;;;26.00;17.52;;;4.90;99.90;;;;;;2075506;28;20021;-80
2023/11/19 00:05:22;;;;;;;23.60;17.35;;;4.90;99.90;;;;;;2081115;28;20470;-80
2023/11/19 00:06:22;;;;;;;25.42;16.67;;;4.90;99.90;;;;;;2092482;28;20555;-78
2023/11/19 00:07:23;;;;;;;23.88;16.92;;;4.90;99.90;;;;;;2084005;28;20150;-78
2023/11/19 00:08:24;;;;;;;23.20;16.77;;;5.00;99.90;;;;;;2081697;28;20045;-78
2023/11/19 00:09:25;;;;;;;26.45;17.38;;;4.90;99.90;;;;;;2086021;28;20025;-79
2023/11/19 00:10:26;;;;;;;25.23;17.05;;;4.90;99.90;;;;;;2081537;28;20507;-78
2023/11/19 00:11:27;;;;;;;24.20;17.05;;;4.90;99.90;;;;;;2070116;28;20030;-78
2023/11/19 00:12:27;;;;;;;27.05;17.35;;;4.90;99.90;;;;;;2083893;28;20513;-79
2023/11/19 00:13:28;;;;;;;25.67;17.38;;;4.90;99.90;;;;;;2092492;28;20046;-78
2023/11/19 00:14:29;;;;;;;27.20;17.52;;;4.90;99.90;;;;;;2092773;28;20568;-79
2023/11/19 00:15:30;;;;;;;24.77;16.75;;;4.90;99.90;;;;;;2086513;28;20048;-79
2023/11/19 00:16:32;;;;;;;22.08;15.85;;;4.90;99.90;;;;;;2079558;28;20037;-79
2023/11/19 00:17:32;;;;;;;28.92;17.38;;;4.90;99.90;;;;;;2083695;28;20458;-79
2023/11/19 00:18:33;;;;;;;25.15;16.98;;;4.90;99.90;;;;;;2084660;28;20032;-80
2023/11/19 00:19:33;;;;;;;24.58;17.15;;;4.80;99.90;;;;;;2084009;28;20021;-79
2023/11/19 00:20:34;;;;;;;24.05;16.85;;;4.80;99.90;;;;;;2081702;28;20386;-79
2023/11/19 00:21:35;;;;;;;23.77;16.42;;;4.70;99.90;;;;;;2083533;28;20031;-79
2023/11/19 00:22:35;;;;;;;27.92;18.45;;;4.80;99.90;;;;;;2084977;28;20040;-79
2023/11/19 00:23:36;;;;;;;29.92;17.60;;;4.80;99.90;;;;;;2083961;28;20029;-79
2023/11/19 00:24:37;;;;;;;26.00;17.80;;;4.80;99.90;;;;;;2077122;28;20029;-79
2023/11/19 00:25:38;;;;;;;27.67;18.20;;;4.80;99.90;;;;;;2084776;28;20108;-79
2023/11/19 00:26:39;;;;;;;31.38;18.02;;;4.80;99.90;;;;;;2085254;28;20024;-81
2023/11/19 00:27:40;;;;;;;24.73;17.77;;;4.80;99.90;;;;;;2084828;28;20128;-78
2023/11/19 00:28:41;;;;;;;25.88;17.65;;;4.80;99.90;;;;;;2081023;28;20101;-80
2023/11/19 00:29:42;;;;;;;26.95;18.75;;;4.80;99.90;;;;;;2084677;28;20048;-78
2023/11/19 00:30:43;;;;;;;26.95;18.42;;;4.80;99.90;;;;;;2092565;28;20025;-78
2023/11/19 00:31:43;;;;;;;28.48;18.27;;;4.80;99.90;;;;;;2090908;28;20025;-73
2023/11/19 00:32:45;;;;;;;25.98;18.02;;;4.80;99.90;;;;;;2084656;28;20055;-73
2023/11/19 00:33:45;;;;;;;26.77;18.85;;;4.70;99.90;;;;;;2084191;28;20041;-71
2023/11/19 00:34:47;;;;;;;26.67;18.17;;;4.70;99.90;;;;;;2084291;28;20049;-79
2023/11/19 00:35:48;;;;;;;26.35;17.85;;;4.80;99.90;;;;;;2084902;28;20024;-86
2023/11/19 00:36:49;;;;;;;26.02;18.13;;;4.70;99.90;;;;;;2088381;28;20033;-84
2023/11/19 00:37:50;;;;;;;26.63;18.05;;;4.70;99.90;;;;;;2088647;28;20116;-87
2023/11/19 00:38:52;;;;;;;26.67;18.58;;;4.70;99.90;;;;;;2095204;28;20119;-84
2023/11/19 00:39:53;;;;;;;26.02;17.80;;;4.70;99.90;;;;;;2095718;28;20414;-85
2023/11/19 00:40:53;;;;;;;25.25;17.80;;;4.70;99.90;;;;;;2076818;28;20057;-84
2023/11/19 00:41:54;;;;;;;24.23;17.98;;;4.70;99.90;;;;;;2076136;28;20156;-85
2023/11/19 00:42:54;;;;;;;26.08;17.80;;;4.70;99.90;;;;;;2086310;28;20081;-85
2023/11/19 00:43:55;;;;;;;26.00;17.92;;;4.70;99.90;;;;;;2087624;28;20253;-84
2023/11/19 00:44:56;;;;;;;26.70;17.95;;;4.70;99.90;;;;;;2094504;28;20028;-82
2023/11/19 00:45:56;;;;;;;25.02;17.77;;;4.70;99.90;;;;;;2087787;28;20029;-85
2023/11/19 00:46:57;;;;;;;27.25;17.85;;;4.60;99.90;;;;;;2086756;28;20029;-85
2023/11/19 00:47:59;;;;;;;24.90;17.42;;;4.70;99.90;;;;;;2095222;28;20017;-85
2023/11/19 00:49:01;;;;;;;27.85;18.58;;;4.70;99.90;;;;;;2095005;28;20155;-87
2023/11/19 00:50:02;;;;;;;24.75;17.67;;;4.70;99.90;;;;;;2088960;28;20064;-84
2023/11/19 00:51:06;;;;;;;24.10;17.60;;;4.70;99.90;;;;;;2081975;28;20029;-85
2023/11/19 00:52:06;;;;;;;24.10;17.35;;;4.70;99.90;;;;;;2086679;28;20084;-86
2023/11/19 00:53:07;;;;;;;22.92;17.02;;;4.70;99.90;;;;;;2095518;28;20035;-83
2023/11/19 00:54:08;;;;;;;23.27;16.70;;;4.70;99.90;;;;;;2095727;28;20050;-84
2023/11/19 00:55:08;;;;;;;24.90;17.20;;;4.70;99.90;;;;;;2090490;28;20059;-86
2023/11/19 00:56:12;;;;;;;24.27;17.70;;;4.70;99.90;;;;;;2082734;28;20033;-89
2023/11/19 00:57:12;;;;;;;24.75;17.52;;;4.70;99.90;;;;;;2082418;28;20120;-83
2023/11/19 00:58:13;;;;;;;22.52;16.73;;;4.70;99.90;;;;;;2083326;28;20033;-88
2023/11/19 00:59:13;;;;;;;22.77;16.92;;;4.70;99.90;;;;;;2086995;28;20035;-87
2023/11/19 01:00:26;;;;;;;22.17;16.50;;;4.70;99.90;;;;;;2082605;28;20428;-84
2023/11/19 01:01:27;;;;;;;23.52;17.00;;;4.60;99.90;;;;;;2087512;28;20075;-84
2023/11/19 01:02:27;;;;;;;22.02;16.48;;;4.70;99.90;;;;;;2086973;28;20487;-85
2023/11/19 01:03:30;;;;;;;23.95;16.38;;;4.70;99.90;;;;;;2079900;28;20021;-85
2023/11/19 01:04:35;;;;;;;24.00;16.70;;;4.60;99.90;;;;;;2076278;28;20034;-85
2023/11/19 01:05:35;;;;;;;23.48;17.13;;;4.60;99.90;;;;;;2083436;28;20422;-86
2023/11/19 01:06:36;;;;;;;23.67;17.58;;;4.70;99.90;;;;;;2086443;28;20037;-87
2023/11/19 01:07:37;;;;;;;22.30;15.82;;;4.70;99.90;;;;;;2087206;28;20116;-84
2023/11/19 01:08:37;;;;;;;22.40;16.30;;;4.70;99.90;;;;;;2094451;28;20021;-86
2023/11/19 01:09:39;;;;;;;24.00;16.40;;;4.70;99.90;;;;;;2077727;28;20033;-86
2023/11/19 01:10:39;;;;;;;23.50;16.38;;;4.70;99.90;;;;;;2072265;28;20029;-86
2023/11/19 01:11:40;;;;;;;22.30;15.98;;;4.70;99.90;;;;;;2087468;28;20028;-84
2023/11/19 01:12:40;;;;;;;22.05;16.17;;;4.70;99.90;;;;;;2092552;28;20016;-87
2023/11/19 01:13:41;;;;;;;23.63;16.38;;;4.70;99.90;;;;;;2085298;28;20033;-84
2023/11/19 01:14:42;;;;;;;22.52;16.27;;;4.60;99.90;;;;;;2086807;28;20035;-85
2023/11/19 01:15:43;;;;;;;23.15;16.02;;;4.60;99.90;;;;;;2086921;28;20055;-87
2023/11/19 01:16:44;;;;;;;20.92;15.35;;;4.60;99.90;;;;;;2095005;28;20495;-84
2023/11/19 01:17:45;;;;;;;22.73;15.95;;;4.60;99.90;;;;;;2078447;28;20041;-84
2023/11/19 01:18:49;;;;;;;22.50;15.38;;;4.60;99.90;;;;;;2082390;28;20108;-85
2023/11/19 01:19:50;;;;;;;20.63;15.48;;;4.60;99.90;;;;;;2087009;28;20120;-87
2023/11/19 01:20:51;;;;;;;22.98;15.55;;;4.60;99.90;;;;;;2086891;28;20009;-84
2023/11/19 01:21:51;;;;;;;20.90;15.35;;;4.60;99.90;;;;;;2070540;28;20046;-85
2023/11/19 01:22:52;;;;;;;21.70;15.38;;;4.60;99.90;;;;;;2062136;28;20061;-85
2023/11/19 01:23:52;;;;;;;21.23;15.82;;;4.60;99.90;;;;;;2073886;28;20491;-84
2023/11/19 01:24:54;;;;;;;21.05;15.90;;;4.60;99.90;;;;;;2085340;28;20029;-83
2023/11/19 01:25:54;;;;;;;21.92;15.60;;;4.60;99.90;;;;;;2087554;28;20041;-82
2023/11/19 01:26:55;;;;;;;22.02;15.75;;;4.60;99.90;;;;;;2088596;28;20017;-85
2023/11/19 01:27:58;;;;;;;20.83;15.30;;;4.60;99.90;;;;;;2084649;28;20352;-84
2023/11/19 01:28:58;;;;;;;21.80;15.80;;;4.60;99.90;;;;;;2088817;28;20100;-85
2023/11/19 01:30:00;;;;;;;20.17;14.77;;;4.60;99.90;;;;;;2079427;28;20033;-85
2023/11/19 01:31:00;;;;;;;20.55;15.23;;;4.70;99.90;;;;;;2080262;28;20017;-85
2023/11/19 01:32:01;;;;;;;20.75;14.57;;;4.70;99.90;;;;;;2079397;28;20030;-85
2023/11/19 01:33:02;;;;;;;18.88;13.90;;;4.70;99.90;;;;;;2084868;28;20516;-83
2023/11/19 01:34:02;;;;;;;19.25;14.38;;;4.70;99.90;;;;;;2077532;28;20048;-86
2023/11/19 01:35:04;;;;;;;18.77;13.93;;;4.70;99.90;;;;;;2083096;28;20080;-87
2023/11/19 01:36:05;;;;;;;17.27;13.40;;;4.70;99.90;;;;;;2090519;28;20017;-86
2023/11/19 01:37:05;;;;;;;18.23;13.25;;;4.70;99.90;;;;;;2098784;28;20023;-85
2023/11/19 01:38:08;;;;;;;19.50;13.82;;;4.80;99.90;;;;;;2103588;28;20104;-85
2023/11/19 01:39:09;;;;;;;19.15;13.90;;;4.80;99.90;;;;;;2103525;28;20004;-87
2023/11/19 01:40:11;;;;;;;16.42;13.00;;;4.80;99.90;;;;;;2092628;28;20033;-85
2023/11/19 01:41:12;;;;;;;17.23;13.10;;;4.90;99.90;;;;;;2094004;28;20044;-87
2023/11/19 01:42:13;;;;;;;18.48;13.30;;;4.80;99.90;;;;;;2090769;28;20005;-84
2023/11/19 01:43:32;;;;;;;19.05;13.30;;;4.80;99.90;;;;;;2095401;28;20023;-86
2023/11/19 01:44:33;;;;;;;19.55;12.93;;;4.80;99.90;;;;;;2095427;28;20090;-85
2023/11/19 01:45:35;;;;;;;18.13;13.02;;;4.80;99.90;;;;;;2103949;28;20016;-87
2023/11/19 01:46:36;;;;;;;17.05;12.77;;;4.80;99.90;;;;;;2103830;28;20016;-87
2023/11/19 01:47:38;;;;;;;17.98;13.00;;;4.80;99.90;;;;;;2104149;28;20009;-84
2023/11/19 01:48:45;;;;;;;17.30;12.73;;;4.90;99.90;;;;;;2103689;28;20088;-84
2023/11/19 01:49:46;;;;;;;16.27;12.13;;;4.80;99.90;;;;;;2091952;28;20065;-87
2023/11/19 01:50:47;;;;;;;14.93;11.90;;;4.90;99.90;;;;;;2095303;28;20872;-84
2023/11/19 01:51:48;;;;;;;16.83;12.32;;;4.80;99.90;;;;;;2095424;28;20017;-85
2023/11/19 01:52:50;;;;;;;15.75;11.60;;;4.90;99.90;;;;;;2095845;28;20009;-82
2023/11/19 01:53:52;;;;;;;15.98;11.93;;;4.90;99.90;;;;;;2095248;28;20078;-86
2023/11/19 01:54:54;;;;;;;17.58;12.20;;;4.80;99.90;;;;;;2092049;28;20078;-85
2023/11/19 01:55:56;;;;;;;16.42;11.48;;;4.90;99.90;;;;;;2095030;28;20028;-83
2023/11/19 01:56:57;;;;;;;15.02;11.35;;;4.90;99.90;;;;;;2094883;28;20484;-85
2023/11/19 01:58:01;;;;;;;15.82;11.02;;;4.90;99.90;;;;;;2087311;28;20099;-87
2023/11/19 01:59:03;;;;;;;15.10;11.55;;;4.90;99.90;;;;;;2078651;28;20046;-86
2023/11/19 02:00:04;;;;;;;14.57;11.32;;;4.90;99.90;;;;;;2087064;28;20364;-86
2023/11/19 02:01:15;;;;;;;15.45;11.35;;;4.90;99.90;;;;;;2094935;28;20029;-82
2023/11/19 02:02:20;;;;;;;15.32;11.15;;;5.00;99.90;;;;;;2086715;28;20581;-86
2023/11/19 02:03:21;;;;;;;14.00;10.57;;;5.00;99.90;;;;;;2078898;28;20022;-86
2023/11/19 02:04:22;;;;;;;13.45;10.20;;;5.00;99.90;;;;;;2075723;28;20101;-87
2023/11/19 02:05:23;;;;;;;13.88;10.80;;;5.00;99.90;;;;;;2073903;28;20053;-85
2023/11/19 02:06:25;;;;;;;13.80;10.60;;;4.90;99.90;;;;;;2086952;28;20032;-86
2023/11/19 02:07:26;;;;;;;13.60;10.50;;;5.00;99.90;;;;;;2087905;28;20079;-86
2023/11/19 02:08:27;;;;;;;13.48;10.68;;;5.00;99.90;;;;;;2072875;28;20034;-89
2023/11/19 02:09:27;;;;;;;11.80;9.48;;;5.00;99.90;;;;;;2070534;28;20038;-86
2023/11/19 02:10:28;;;;;;;12.98;10.25;;;5.00;99.90;;;;;;2081621;28;20101;-88
2023/11/19 02:11:29;;;;;;;13.27;9.90;;;5.00;99.90;;;;;;2078213;28;20056;-87
2023/11/19 02:12:33;;;;;;;14.13;10.00;;;5.00;99.90;;;;;;2072122;28;20129;-87
2023/11/19 02:13:36;;;;;;;12.40;9.60;;;5.00;99.90;;;;;;2078138;28;20514;-90
2023/11/19 02:14:38;;;;;;;14.27;9.80;;;5.00;99.90;;;;;;2087919;28;20108;-84
2023/11/19 02:15:39;;;;;;;13.10;9.80;;;5.00;99.90;;;;;;2088847;28;20044;-86
2023/11/19 02:16:39;;;;;;;12.48;9.40;;;5.00;99.90;;;;;;2090521;28;20009;-86
2023/11/19 02:17:40;;;;;;;12.13;9.93;;;5.00;99.90;;;;;;2093877;28;20029;-85
2023/11/19 02:18:41;;;;;;;13.13;9.98;;;5.00;99.90;;;;;;2101000;28;20024;-85
2023/11/19 02:19:42;;;;;;;12.88;9.35;;;5.00;99.90;;;;;;2104468;28;20016;-86
2023/11/19 02:20:42;;;;;;;11.82;9.57;;;5.00;99.90;;;;;;2101268;28;20021;-86
2023/11/19 02:21:43;;;;;;;12.60;9.13;;;5.00;99.90;;;;;;2104228;28;20008;-85
2023/11/19 02:22:44;;;;;;;10.20;8.40;;;5.00;99.90;;;;;;2103965;28;20033;-85
2023/11/19 02:23:45;;;;;;;13.57;9.93;;;5.00;99.90;;;;;;2088735;28;20085;-87
2023/11/19 02:24:49;;;;;;;13.00;9.18;;;5.00;99.90;;;;;;2080756;28;20022;-85
2023/11/19 02:25:58;;;;;;;12.00;8.63;;;5.00;99.90;;;;;;2095823;28;20021;-85
2023/11/19 02:27:13;;;;;;;11.85;8.88;;;5.00;99.90;;;;;;2093308;28;20119;-85
2023/11/19 02:28:14;;;;;;;11.73;8.43;;;4.90;99.90;;;;;;2090464;28;20049;-84
2023/11/19 02:29:15;;;;;;;10.57;8.38;;;5.00;99.90;;;;;;2089248;28;20025;-82
2023/11/19 02:30:16;;;;;;;10.68;8.20;;;4.90;99.90;;;;;;2096553;28;20028;-83
2023/11/19 02:31:20;;;;;;;11.15;8.07;;;4.90;99.90;;;;;;2096524;28;20029;-88
2023/11/19 02:32:20;;;;;;;10.52;8.27;;;4.90;99.90;;;;;;2093985;28;20101;-83
2023/11/19 02:33:21;;;;;;;10.00;7.78;;;4.90;99.90;;;;;;2099877;28;20021;-83
2023/11/19 02:34:21;;;;;;;10.63;8.23;;;4.90;99.90;;;;;;2088938;28;20021;-85
2023/11/19 02:35:22;;;;;;;10.90;8.07;;;5.00;99.90;;;;;;2080434;28;20060;-84
2023/11/19 02:36:23;;;;;;;11.18;8.40;;;4.90;99.90;;;;;;2093248;28;20013;-85
2023/11/19 02:37:23;;;;;;;10.05;8.23;;;5.00;99.90;;;;;;2088482;28;20034;-87
2023/11/19 02:38:24;;;;;;;10.15;7.55;;;5.00;99.90;;;;;;2088411;28;20077;-88
2023/11/19 02:39:26;;;;;;;10.57;7.80;;;5.00;99.90;;;;;;2093590;28;20012;-86
2023/11/19 02:40:27;;;;;;;9.05;7.63;;;5.00;99.90;;;;;;2089847;28;20014;-86
2023/11/19 02:41:27;;;;;;;8.73;6.95;;;5.00;99.90;;;;;;2092290;28;20040;-85
2023/11/19 02:42:28;;;;;;;9.95;7.25;;;5.00;99.90;;;;;;2087439;28;20029;-86
2023/11/19 02:43:31;;;;;;;9.60;7.10;;;5.00;99.90;;;;;;2088890;28;20307;-87
2023/11/19 02:44:31;;;;;;;9.05;6.68;;;5.00;99.90;;;;;;2088009;28;20422;-84
2023/11/19 02:45:32;;;;;;;8.63;6.80;;;5.00;99.90;;;;;;2080437;28;20271;-87
2023/11/19 02:46:33;;;;;;;9.23;6.30;;;5.00;99.90;;;;;;2089604;28;20037;-84
2023/11/19 02:47:34;;;;;;;7.35;6.13;;;5.00;99.90;;;;;;2090171;28;20036;-88
2023/11/19 02:48:35;;;;;;;8.02;6.22;;;5.10;99.90;;;;;;2086900;28;20185;-86
2023/11/19 02:49:37;;;;;;;7.63;6.30;;;5.10;99.90;;;;;;2089458;28;20053;-87
2023/11/19 02:50:37;;;;;;;8.23;6.35;;;5.10;99.90;;;;;;2088118;28;20036;-85
2023/11/19 02:51:38;;;;;;;9.05;6.63;;;5.20;99.90;;;;;;2088181;28;20017;-85
2023/11/19 02:52:42;;;;;;;10.55;7.00;;;5.10;99.90;;;;;;2088812;28;20061;-84
2023/11/19 02:53:44;;;;;;;9.32;6.40;;;5.10;99.90;;;;;;2089021;28;20667;-85
2023/11/19 02:54:45;;;;;;;7.90;6.13;;;5.10;99.90;;;;;;2087913;28;20032;-85
2023/11/19 02:55:49;;;;;;;7.82;6.30;;;5.20;99.90;;;;;;2079752;28;20029;-83
2023/11/19 02:56:55;;;;;;;6.97;5.80;;;5.20;99.90;;;;;;2079882;28;20033;-84
2023/11/19 02:57:58;;;;;;;9.50;6.68;;;5.20;99.90;;;;;;2087501;28;20045;-85
2023/11/19 02:58:59;;;;;;;7.78;6.07;;;5.20;99.90;;;;;;2088674;28;20062;-86
2023/11/19 03:00:00;;;;;;;7.50;5.80;;;5.20;99.90;;;;;;2096005;28;20021;-85
2023/11/19 03:01:10;;;;;;;7.80;5.63;;;5.20;99.90;;;;;;2095595;28;20021;-84
2023/11/19 03:02:11;;;;;;;9.52;6.15;;;5.20;99.90;;;;;;2089571;28;20070;-85
2023/11/19 03:03:20;;;;;;;7.60;5.65;;;5.20;99.90;;;;;;2087374;28;20037;-86
2023/11/19 03:04:23;;;;;;;6.65;5.55;;;5.20;99.90;;;;;;2080167;28;20046;-86
2023/11/19 03:05:23;;;;;;;6.97;5.65;;;5.30;99.90;;;;;;2084059;28;20026;-85
2023/11/19 03:06:24;;;;;;;7.90;6.00;;;5.30;99.90;;;;;;2085172;28;20029;-88
2023/11/19 03:07:25;;;;;;;7.25;5.70;;;5.30;99.90;;;;;;2088065;28;20025;-85
2023/11/19 03:08:26;;;;;;;7.28;5.40;;;5.30;99.90;;;;;;2084332;28;20287;-85
2023/11/19 03:09:26;;;;;;;6.28;5.38;;;5.30;99.90;;;;;;2073391;28;20029;-84
2023/11/19 03:10:29;;;;;;;9.30;5.55;;;5.30;99.90;;;;;;2079058;28;20056;-86
2023/11/19 03:11:29;;;;;;;7.22;5.65;;;5.30;99.90;;;;;;2083555;28;20041;-85
2023/11/19 03:12:30;;;;;;;6.60;5.43;;;5.30;99.90;;;;;;2087131;28;20045;-85
2023/11/19 03:13:30;;;;;;;6.90;5.63;;;5.30;99.90;;;;;;2087361;28;20488;-87
2023/11/19 03:14:34;;;;;;;6.38;5.30;;;5.30;99.90;;;;;;2093510;28;20032;-86
2023/11/19 03:15:35;;;;;;;6.15;5.35;;;5.30;99.90;;;;;;2095114;28;20029;-86
2023/11/19 03:16:35;;;;;;;5.97;4.80;;;5.30;99.90;;;;;;2089822;28;20488;-87
2023/11/19 03:17:45;;;;;;;6.68;5.10;;;5.30;99.90;;;;;;2099047;28;20033;-86
2023/11/19 03:18:46;;;;;;;5.75;5.00;;;5.30;99.90;;;;;;2099506;28;20013;-86
2023/11/19 03:19:48;;;;;;;7.55;5.22;;;5.30;99.90;;;;;;2092990;28;20017;-87
2023/11/19 03:20:49;;;;;;;7.70;5.00;;;5.30;99.90;;;;;;2089888;28;20036;-85
2023/11/19 03:21:50;;;;;;;6.00;5.15;;;5.30;99.90;;;;;;2095885;28;20032;-84
2023/11/19 03:22:51;;;;;;;6.80;5.13;;;5.30;99.90;;;;;;2087281;28;20087;-86
2023/11/19 03:23:52;;;;;;;7.55;5.20;;;5.40;99.90;;;;;;2075733;28;20040;-87
2023/11/19 03:24:52;;;;;;;6.18;5.30;;;5.40;99.90;;;;;;2078930;28;20043;-87
2023/11/19 03:25:53;;;;;;;6.82;5.10;;;5.40;99.90;;;;;;2083666;28;20143;-84
2023/11/19 03:26:56;;;;;;;5.90;4.90;;;5.40;99.90;;;;;;2085622;28;20048;-87
2023/11/19 03:27:58;;;;;;;5.85;5.03;;;5.40;99.90;;;;;;2089135;28;20053;-86
2023/11/19 03:28:59;;;;;;;5.65;4.90;;;5.40;99.90;;;;;;2087207;28;20078;-85
2023/11/19 03:29:59;;;;;;;7.32;5.22;;;5.40;99.90;;;;;;2083528;28;20052;-86
2023/11/19 03:31:00;;;;;;;5.97;5.05;;;5.40;99.90;;;;;;2083914;28;20247;-85
2023/11/19 03:32:00;;;;;;;5.93;4.78;;;5.40;99.90;;;;;;2087285;28;20052;-85
2023/11/19 03:33:02;;;;;;;6.07;4.97;;;5.40;99.90;;;;;;2084710;28;20031;-85
2023/11/19 03:34:02;;;;;;;6.40;5.07;;;5.40;99.90;;;;;;2086029;28;20199;-85
2023/11/19 03:35:04;;;;;;;5.68;4.68;;;5.40;99.90;;;;;;2085653;28;20068;-86
2023/11/19 03:36:06;;;;;;;6.13;4.72;;;5.40;99.90;;;;;;2075098;28;20186;-87
2023/11/19 03:37:07;;;;;;;6.07;4.90;;;5.40;99.90;;;;;;2078111;28;20029;-85
2023/11/19 03:38:08;;;;;;;5.60;4.50;;;5.40;99.90;;;;;;2084844;28;20158;-86
2023/11/19 03:39:08;;;;;;;5.20;4.35;;;5.50;99.90;;;;;;2077426;28;20482;-87
2023/11/19 03:40:12;;;;;;;5.43;4.60;;;5.50;99.90;;;;;;2075445;28;20084;-87
2023/11/19 03:41:14;;;;;;;5.20;4.70;;;5.50;99.90;;;;;;2078596;28;20515;-85
2023/11/19 03:42:14;;;;;;;5.10;4.50;;;5.50;99.90;;;;;;2079351;28;20056;-84
2023/11/19 03:43:15;;;;;;;5.20;4.40;;;5.50;99.90;;;;;;2086893;28;20021;-88
2023/11/19 03:44:16;;;;;;;6.82;4.90;;;5.50;99.90;;;;;;2088398;28;20055;-84
2023/11/19 03:45:17;;;;;;;5.38;4.50;;;5.50;99.90;;;;;;2088547;28;20032;-87
2023/11/19 03:46:21;;;;;;;6.07;4.40;;;5.50;99.90;;;;;;2096217;28;20037;-87
2023/11/19 03:47:23;;;;;;;5.60;4.63;;;5.50;99.90;;;;;;2083260;28;20083;-88
2023/11/19 03:48:23;;;;;;;4.85;4.35;;;5.50;99.90;;;;;;2084966;28;20025;-85
2023/11/19 03:49:24;;;;;;;5.03;4.30;;;5.50;99.90;;;;;;2087284;28;20152;-85
2023/11/19 03:50:24;;;;;;;5.05;4.28;;;5.50;99.90;;;;;;2083563;28;20071;-86
2023/11/19 03:51:26;;;;;;;5.72;4.63;;;5.60;99.90;;;;;;2080030;28;20523;-85
2023/11/19 03:52:29;;;;;;;4.63;4.07;;;5.60;99.90;;;;;;2084108;28;20152;-84
2023/11/19 03:53:30;;;;;;;5.18;4.20;;;5.60;99.90;;;;;;2086286;28;20498;-85
2023/11/19 03:54:32;;;;;;;5.60;4.18;;;5.60;99.90;;;;;;2087209;28;20184;-86
2023/11/19 03:55:33;;;;;;;6.32;4.80;;;5.60;99.90;;;;;;2086904;28;20110;-86
2023/11/19 03:56:34;;;;;;;5.35;4.55;;;5.60;99.90;;;;;;2087044;28;20095;-84
2023/11/19 03:57:35;;;;;;;5.35;4.28;;;5.60;99.90;;;;;;2070801;28;20026;-86
2023/11/19 03:58:35;;;;;;;6.95;4.60;;;5.60;99.90;;;;;;2078532;28;20025;-83
2023/11/19 03:59:36;;;;;;;6.65;4.47;;;5.60;99.90;;;;;;2088206;28;20021;-88
2023/11/19 04:00:37;;;;;;;5.40;4.60;;;5.60;99.90;;;;;;2086518;28;20036;-87
2023/11/19 04:01:37;;;;;;;7.28;4.78;;;5.60;99.90;;;;;;2086596;28;20021;-85
2023/11/19 04:02:38;;;;;;;5.28;4.30;;;5.50;99.90;;;;;;2087077;28;20035;-86
2023/11/19 04:03:38;;;;;;;5.82;4.95;;;5.60;99.90;;;;;;2086682;28;20380;-86
2023/11/19 04:04:39;;;;;;;5.50;4.90;;;5.50;99.90;;;;;;2086697;28;20531;-87
2023/11/19 04:05:40;;;;;;;6.32;5.22;;;5.50;99.90;;;;;;2074548;28;20033;-85
2023/11/19 04:06:40;;;;;;;6.78;5.10;;;5.60;99.90;;;;;;2087441;28;20890;-86
2023/11/19 04:07:41;;;;;;;5.72;4.90;;;5.50;99.90;;;;;;2080650;28;20029;-84
2023/11/19 04:08:42;;;;;;;6.57;5.28;;;5.50;99.90;;;;;;2081152;28;20060;-86
2023/11/19 04:09:42;;;;;;;6.68;5.22;;;5.50;99.90;;;;;;2088591;28;20029;-85
2023/11/19 04:10:43;;;;;;;6.75;5.30;;;5.60;99.90;;;;;;2079753;28;20037;-86
2023/11/19 04:11:46;;;;;;;6.88;5.38;;;5.50;99.90;;;;;;2078940;28;20026;-88
2023/11/19 04:12:47;;;;;;;8.93;7.13;;;5.50;99.90;;;;;;2091110;28;20125;-88
2023/11/19 04:13:47;;;;;;;8.15;7.00;;;5.50;99.90;;;;;;2094717;28;20142;-85
2023/11/19 04:14:48;;;;;;;28.70;21.52;;;5.50;99.90;;;;;;2087120;28;20136;-86
2023/11/19 04:15:50;;;;;;;18.15;12.35;;;5.50;99.90;;;;;;2086914;28;20025;-85
2023/11/19 04:16:51;;;;;;;15.65;11.25;;;5.60;99.90;;;;;;2083808;28;20534;-84
2023/11/19 04:17:51;;;;;;;7.60;5.88;;;5.60;99.90;;;;;;2082680;28;20037;-86
2023/11/19 04:18:52;;;;;;;7.35;5.75;;;5.60;99.90;;;;;;2087074;28;20029;-87
2023/11/19 04:19:52;;;;;;;7.38;5.65;;;5.50;99.90;;;;;;2095266;28;20486;-84
2023/11/19 04:20:53;;;;;;;8.13;6.40;;;5.60;99.90;;;;;;2083972;28;20029;-86
2023/11/19 04:22:00;;;;;;;7.00;6.10;;;5.50;99.90;;;;;;2087789;28;20392;-85
2023/11/19 04:23:00;;;;;;;6.95;6.00;;;5.50;99.90;;;;;;2085525;28;20037;-87
2023/11/19 04:24:01;;;;;;;8.93;6.30;;;5.60;99.90;;;;;;2079308;28;20032;-86
2023/11/19 04:25:02;;;;;;;7.18;6.00;;;5.50;99.90;;;;;;2076710;28;20029;-85
2023/11/19 04:26:04;;;;;;;8.20;6.40;;;5.50;99.90;;;;;;2082657;28;20060;-89
2023/11/19 04:27:06;;;;;;;8.00;6.43;;;5.50;99.90;;;;;;2086396;28;20035;-87
2023/11/19 04:28:06;;;;;;;9.57;6.50;;;5.50;99.90;;;;;;2082431;28;20021;-85
2023/11/19 04:29:09;;;;;;;9.38;6.72;;;5.40;99.90;;;;;;2084624;28;20111;-85
2023/11/19 04:30:10;;;;;;;9.65;6.88;;;5.50;99.90;;;;;;2085429;28;20751;-85
2023/11/19 04:31:11;;;;;;;8.77;6.85;;;5.40;99.90;;;;;;2095412;28;20580;-85
2023/11/19 04:32:12;;;;;;;10.38;7.22;;;5.40;99.90;;;;;;2095186;28;20032;-84
2023/11/19 04:33:12;;;;;;;9.57;7.45;;;5.40;99.90;;;;;;2082689;28;20120;-86
2023/11/19 04:34:13;;;;;;;10.88;7.22;;;5.40;99.90;;;;;;2085621;28;20021;-83
2023/11/19 04:35:13;;;;;;;10.57;7.47;;;5.30;99.90;;;;;;2083404;28;20018;-81
2023/11/19 04:36:19;;;;;;;10.50;7.60;;;5.30;99.90;;;;;;2080891;28;20094;-83
2023/11/19 04:37:19;;;;;;;10.43;7.63;;;5.30;99.90;;;;;;2086808;28;20020;-84
2023/11/19 04:38:20;;;;;;;12.25;8.38;;;5.30;99.90;;;;;;2086164;28;20056;-85
2023/11/19 04:39:21;;;;;;;12.27;7.95;;;5.30;99.90;;;;;;2082397;28;20555;-81
2023/11/19 04:40:22;;;;;;;12.98;8.93;;;5.30;99.90;;;;;;2083249;28;20641;-85
2023/11/19 04:41:23;;;;;;;13.90;8.88;;;5.20;99.90;;;;;;2086267;28;20053;-83
2023/11/19 04:42:24;;;;;;;13.40;9.10;;;5.20;99.90;;;;;;2085910;28;20407;-86
2023/11/19 04:43:24;;;;;;;13.82;9.10;;;5.20;99.90;;;;;;2086589;28;20452;-84
2023/11/19 04:44:25;;;;;;;12.90;8.82;;;5.10;99.90;;;;;;2086064;28;20052;-85
2023/11/19 04:45:25;;;;;;;11.52;9.25;;;5.10;99.90;;;;;;2085440;28;20527;-85
2023/11/19 04:46:26;;;;;;;12.65;8.85;;;5.20;99.90;;;;;;2086316;28;20079;-85
2023/11/19 04:47:26;;;;;;;12.40;8.93;;;5.20;99.90;;;;;;2086141;28;20027;-84
2023/11/19 04:48:27;;;;;;;12.45;9.20;;;5.10;99.90;;;;;;2087696;28;20033;-87
2023/11/19 04:49:28;;;;;;;13.60;9.65;;;5.10;99.90;;;;;;2087451;28;20116;-85
2023/11/19 04:50:28;;;;;;;11.30;9.32;;;5.10;99.90;;;;;;2090570;28;20033;-85
2023/11/19 04:51:29;;;;;;;13.70;9.00;;;5.10;99.90;;;;;;2087945;28;20501;-85
2023/11/19 04:52:29;;;;;;;11.85;8.65;;;5.10;99.90;;;;;;2090773;28;20029;-84
2023/11/19 04:53:30;;;;;;;15.00;9.15;;;5.10;99.90;;;;;;2080292;28;20480;-84
2023/11/19 04:54:31;;;;;;;13.80;9.68;;;5.10;99.90;;;;;;2073563;28;20032;-84
2023/11/19 04:55:31;;;;;;;13.98;9.80;;;5.00;99.90;;;;;;2078566;28;20017;-84
2023/11/19 04:56:32;;;;;;;10.55;8.55;;;5.00;99.90;;;;;;2090844;28;20506;-83
2023/11/19 04:57:32;;;;;;;13.25;9.45;;;5.10;99.90;;;;;;2088683;28;20605;-85
2023/11/19 04:58:33;;;;;;;13.05;9.68;;;5.00;99.90;;;;;;2089309;28;20027;-84
2023/11/19 04:59:34;;;;;;;12.40;9.27;;;5.00;99.90;;;;;;2082227;28;20027;-85
2023/11/19 05:00:35;;;;;;;12.27;9.02;;;5.10;99.90;;;;;;2089866;28;20043;-86
2023/11/19 05:01:35;;;;;;;13.30;9.13;;;5.00;99.90;;;;;;2090084;28;20083;-84
2023/11/19 05:02:37;;;;;;;12.57;9.20;;;5.00;99.90;;;;;;2088531;28;20402;-87
2023/11/19 05:03:37;;;;;;;11.27;8.77;;;5.00;99.90;;;;;;2090944;28;20029;-88
2023/11/19 05:04:43;;;;;;;13.88;8.70;;;5.00;99.90;;;;;;2087584;28;20100;-85
2023/11/19 05:05:43;;;;;;;13.68;9.75;;;5.00;99.90;;;;;;2088816;28;20078;-87
2023/11/19 05:06:44;;;;;;;12.07;9.20;;;5.00;99.90;;;;;;2081733;28;20095;-87
2023/11/19 05:07:44;;;;;;;12.35;9.40;;;5.00;99.90;;;;;;2086153;28;20029;-86
2023/11/19 05:08:45;;;;;;;11.32;8.82;;;4.90;99.90;;;;;;2091870;28;20039;-84
2023/11/19 05:09:46;;;;;;;13.30;9.40;;;4.90;99.90;;;;;;2077214;28;20482;-86
2023/11/19 05:10:46;;;;;;;12.63;9.13;;;4.90;99.90;;;;;;2072568;28;20041;-85
2023/11/19 05:11:48;;;;;;;13.25;9.43;;;4.90;99.90;;;;;;2075155;28;20036;-87
2023/11/19 05:12:51;;;;;;;12.45;9.20;;;4.90;99.90;;;;;;2086714;28;20491;-85
2023/11/19 05:13:52;;;;;;;13.60;9.05;;;4.90;99.90;;;;;;2082764;28;20303;-86
2023/11/19 05:14:52;;;;;;;13.02;9.43;;;4.90;99.90;;;;;;2069598;28;20034;-85
2023/11/19 05:15:53;;;;;;;12.63;9.23;;;4.90;99.90;;;;;;2081368;28;20033;-84
2023/11/19 05:16:53;;;;;;;13.77;9.20;;;4.90;99.90;;;;;;2091533;28;20024;-86
2023/11/19 05:17:54;;;;;;;14.93;9.05;;;4.90;99.90;;;;;;2082108;28;20025;-86
2023/11/19 05:18:55;;;;;;;12.77;9.02;;;4.90;99.90;;;;;;2078605;28;20025;-83